sensor_id;sensor_type;location;lat;lon;timestamp;temperature;humidity
16867;DHT22;8550;52.596;13.320;2022-11-25T00:01:15;5.00;99.90
16867;DHT22;8550;52.596;13.320;2022-11-25T00:06:20;5.00;99.90
16867;DHT22;8550;52.596;13.320;2022-11-25T00:11:22;5.10;99.90
16867;DHT22;8550;52.596;13.320;2022-11-25T00:16:24;4.90;99.90
16867;DHT22;8550;52.596;13.320;2022-11-25T00:21:31;5.00;99.90
16867;DHT22;8550;52.596;13.320;2022-11-25T00:26:35;4.90;99.90
16867;DHT22;8550;52.596;13.320;2022-11-25T00:31:38;4.90;99.90
16867;DHT22;8550;52.596;13.320;2022-11-25T00:36:41;4.90;99.90
16867;DHT22;8550;52.596;13.320;2022-11-25T00:41:44;4.80;99.90
16867;DHT22;8550;52.596;13.320;2022-11-25T00:47:05;4.90;99.90
16867;DHT22;8550;52.596;13.320;2022-11-25T00:52:13;4.80;99.90
16867;DHT22;8550;52.596;13.320;2022-11-25T00:57:17;4.80;99.90
16867;DHT22;8550;52.596;13.320;2022-11-25T01:02:19;4.80;99.90
16867;DHT22;8550;52.596;13.320;2022-11-25T01:07:23;4.80;99.90
16867;DHT22;8550;52.596;13.320;2022-11-25T01:12:25;5.00;99.90
16867;DHT22;8550;52.596;13.320;2022-11-25T01:17:27;5.00;99.90
16867;DHT22;8550;52.596;13.320;2022-11-25T01:22:30;4.90;99.90
16867;DHT22;8550;52.596;13.320;2022-11-25T01:27:32;4.90;99.90
16867;DHT22;8550;52.596;13.320;2022-11-25T01:32:34;4.90;99.90
16867;DHT22;8550;52.596;13.320;2022-11-25T01:37:37;4.90;99.90
16867;DHT22;8550;52.596;13.320;2022-11-25T01:42:42;4.80;99.90
16867;DHT22;8550;52.596;13.320;2022-11-25T01:47:44;4.80;99.90
16867;DHT22;8550;52.596;13.320;2022-11-25T01:52:50;4.80;99.90
16867;DHT22;8550;52.596;13.320;2022-11-25T01:57:55;4.80;99.90
16867;DHT22;8550;52.596;13.320;2022-11-25T02:02:59;4.70;99.90
16867;DHT22;8550;52.596;13.320;2022-11-25T02:08:03;4.80;99.90
16867;DHT22;8550;52.596;13.320;2022-11-25T02:13:06;4.90;99.90
16867;DHT22;8550;52.596;13.320;2022-11-25T02:18:08;5.00;99.90
16867;DHT22;8550;52.596;13.320;2022-11-25T02:23:21;5.00;99.90
16867;DHT22;8550;52.596;13.320;2022-11-25T02:28:29;5.00;99.90
16867;DHT22;8550;52.596;13.320;2022-11-25T02:33:31;4.80;99.90
16867;DHT22;8550;52.596;13.320;2022-11-25T02:38:37;4.70;99.90
16867;DHT22;8550;52.596;13.320;2022-11-25T02:43:41;4.60;99.90
16867;DHT22;8550;52.596;13.320;2022-11-25T02:48:43;4.50;99.90
16867;DHT22;8550;52.596;13.320;2022-11-25T02:53:45;4.50;99.90
16867;DHT22;8550;52.596;13.320;2022-11-25T02:58:49;4.40;99.90
16867;DHT22;8550;52.596;13.320;2022-11-25T03:03:51;4.50;99.90
16867;DHT22;8550;52.596;13.320;2022-11-25T03:08:52;4.40;99.90
16867;DHT22;8550;52.596;13.320;2022-11-25T03:13:56;4.60;99.90
16867;DHT22;8550;52.596;13.320;2022-11-25T03:18:58;4.70;99.90
16867;DHT22;8550;52.596;13.320;2022-11-25T03:23:59;4.80;99.90
16867;DHT22;8550;52.596;13.320;2022-11-25T03:29:03;4.90;99.90
16867;DHT22;8550;52.596;13.320;2022-11-25T03:34:06;4.90;99.90
16867;DHT22;8550;52.596;13.320;2022-11-25T03:39:07;5.10;99.90
16867;DHT22;8550;52.596;13.320;2022-11-25T03:44:11;5.10;99.90
16867;DHT22;8550;52.596;13.320;2022-11-25T03:49:13;5.20;99.90
16867;DHT22;8550;52.596;13.320;2022-11-25T03:54:15;5.20;99.90
16867;DHT22;8550;52.596;13.320;2022-11-25T03:59:18;5.30;99.90
16867;DHT22;8550;52.596;13.320;2022-11-25T04:04:20;5.30;99.90
16867;DHT22;8550;52.596;13.320;2022-11-25T04:09:22;5.30;99.90
16867;DHT22;8550;52.596;13.320;2022-11-25T04:14:26;5.40;99.90
16867;DHT22;8550;52.596;13.320;2022-11-25T04:19:28;5.40;99.90
16867;DHT22;8550;52.596;13.320;2022-11-25T04:24:30;5.40;99.90
16867;DHT22;8550;52.596;13.320;2022-11-25T04:29:33;5.40;99.90
16867;DHT22;8550;52.596;13.320;2022-11-25T04:34:35;5.40;99.90
16867;DHT22;8550;52.596;13.320;2022-11-25T04:39:37;5.40;99.90
16867;DHT22;8550;52.596;13.320;2022-11-25T04:44:41;5.40;99.90
16867;DHT22;8550;52.596;13.320;2022-11-25T04:49:42;5.40;99.90
16867;DHT22;8550;52.596;13.320;2022-11-25T04:54:44;5.50;99.90
16867;DHT22;8550;52.596;13.320;2022-11-25T04:59:48;5.50;99.90
16867;DHT22;8550;52.596;13.320;2022-11-25T05:04:51;5.60;99.90
16867;DHT22;8550;52.596;13.320;2022-11-25T05:09:53;5.60;99.90
16867;DHT22;8550;52.596;13.320;2022-11-25T05:14:57;5.60;99.90
16867;DHT22;8550;52.596;13.320;2022-11-25T05:19:59;5.70;99.90
16867;DHT22;8550;52.596;13.320;2022-11-25T05:25:01;5.70;99.90
16867;DHT22;8550;52.596;13.320;2022-11-25T05:30:08;5.80;99.90
16867;DHT22;8550;52.596;13.320;2022-11-25T05:35:11;5.70;99.90
16867;DHT22;8550;52.596;13.320;2022-11-25T05:40:13;5.70;99.90
16867;DHT22;8550;52.596;13.320;2022-11-25T05:45:17;5.80;99.90
16867;DHT22;8550;52.596;13.320;2022-11-25T05:50:18;5.80;99.90
16867;DHT22;8550;52.596;13.320;2022-11-25T05:55:20;5.70;99.90
16867;DHT22;8550;52.596;13.320;2022-11-25T06:00:24;5.60;99.90
16867;DHT22;8550;52.596;13.320;2022-11-25T06:05:26;5.60;99.90
16867;DHT22;8550;52.596;13.320;2022-11-25T06:10:28;5.70;99.90
16867;DHT22;8550;52.596;13.320;2022-11-25T06:15:31;5.60;99.90
16867;DHT22;8550;52.596;13.320;2022-11-25T06:20:33;5.40;99.90
16867;DHT22;8550;52.596;13.320;2022-11-25T06:25:35;5.10;99.90
16867;DHT22;8550;52.596;13.320;2022-11-25T06:30:38;4.90;99.90
16867;DHT22;8550;52.596;13.320;2022-11-25T06:35:40;4.70;99.90
16867;DHT22;8550;52.596;13.320;2022-11-25T06:40:42;4.60;99.90
16867;DHT22;8550;52.596;13.320;2022-11-25T06:45:46;4.40;99.90
16867;DHT22;8550;52.596;13.320;2022-11-25T06:50:55;4.40;99.90
16867;DHT22;8550;52.596;13.320;2022-11-25T06:56:05;4.30;99.90
16867;DHT22;8550;52.596;13.320;2022-11-25T07:01:12;4.30;99.90
16867;DHT22;8550;52.596;13.320;2022-11-25T07:06:16;4.20;99.90
16867;DHT22;8550;52.596;13.320;2022-11-25T07:11:20;4.20;99.90
16867;DHT22;8550;52.596;13.320;2022-11-25T07:16:24;4.10;99.90
16867;DHT22;8550;52.596;13.320;2022-11-25T07:21:27;4.10;99.90
16867;DHT22;8550;52.596;13.320;2022-11-25T07:26:32;4.20;99.90
16867;DHT22;8550;52.596;13.320;2022-11-25T07:31:41;4.20;99.90
16867;DHT22;8550;52.596;13.320;2022-11-25T07:36:44;4.10;99.90
16867;DHT22;8550;52.596;13.320;2022-11-25T07:41:48;4.20;99.90
16867;DHT22;8550;52.596;13.320;2022-11-25T07:46:52;4.50;99.90
16867;DHT22;8550;52.596;13.320;2022-11-25T07:51:56;4.70;99.90
16867;DHT22;8550;52.596;13.320;2022-11-25T07:56:59;4.90;99.90
16867;DHT22;8550;52.596;13.320;2022-11-25T08:02:02;4.90;99.90
16867;DHT22;8550;52.596;13.320;2022-11-25T08:07:04;5.00;99.90
16867;DHT22;8550;52.596;13.320;2022-11-25T08:12:06;5.00;99.90
16867;DHT22;8550;52.596;13.320;2022-11-25T08:17:09;5.20;99.90
16867;DHT22;8550;52.596;13.320;2022-11-25T08:22:12;5.30;99.90
16867;DHT22;8550;52.596;13.320;2022-11-25T08:27:14;5.40;99.90
16867;DHT22;8550;52.596;13.320;2022-11-25T08:32:17;5.50;99.90
16867;DHT22;8550;52.596;13.320;2022-11-25T08:37:19;5.60;99.90
16867;DHT22;8550;52.596;13.320;2022-11-25T08:42:21;5.60;99.90
16867;DHT22;8550;52.596;13.320;2022-11-25T08:47:24;5.70;99.90
16867;DHT22;8550;52.596;13.320;2022-11-25T08:52:26;5.80;99.90
16867;DHT22;8550;52.596;13.320;2022-11-25T08:57:29;5.90;99.90
16867;DHT22;8550;52.596;13.320;2022-11-25T09:02:32;6.00;99.90
16867;DHT22;8550;52.596;13.320;2022-11-25T09:07:35;6.20;99.90
16867;DHT22;8550;52.596;13.320;2022-11-25T09:12:37;6.40;99.90
16867;DHT22;8550;52.596;13.320;2022-11-25T09:17:40;6.50;99.90
16867;DHT22;8550;52.596;13.320;2022-11-25T09:22:42;6.60;99.90
16867;DHT22;8550;52.596;13.320;2022-11-25T09:27:44;6.70;99.90
16867;DHT22;8550;52.596;13.320;2022-11-25T09:32:49;6.80;99.90
16867;DHT22;8550;52.596;13.320;2022-11-25T09:37:52;6.80;99.90
16867;DHT22;8550;52.596;13.320;2022-11-25T09:42:59;6.90;99.90
16867;DHT22;8550;52.596;13.320;2022-11-25T09:48:45;7.10;99.90
16867;DHT22;8550;52.596;13.320;2022-11-25T09:53:51;7.20;99.90
16867;DHT22;8550;52.596;13.320;2022-11-25T09:58:58;7.30;99.90
16867;DHT22;8550;52.596;13.320;2022-11-25T10:04:08;7.50;99.90
16867;DHT22;8550;52.596;13.320;2022-11-25T10:09:14;7.60;99.90
16867;DHT22;8550;52.596;13.320;2022-11-25T10:14:23;7.60;99.90
16867;DHT22;8550;52.596;13.320;2022-11-25T10:19:37;7.80;99.90
16867;DHT22;8550;52.596;13.320;2022-11-25T10:24:39;8.00;99.90
16867;DHT22;8550;52.596;13.320;2022-11-25T10:29:41;8.10;99.90
16867;DHT22;8550;52.596;13.320;2022-11-25T10:34:48;8.40;99.90
16867;DHT22;8550;52.596;13.320;2022-11-25T10:39:52;8.50;99.90
16867;DHT22;8550;52.596;13.320;2022-11-25T10:44:54;8.80;99.90
16867;DHT22;8550;52.596;13.320;2022-11-25T10:50:10;9.00;99.90
16867;DHT22;8550;52.596;13.320;2022-11-25T10:55:15;9.70;99.90
16867;DHT22;8550;52.596;13.320;2022-11-25T11:00:25;10.00;99.90
16867;DHT22;8550;52.596;13.320;2022-11-25T11:05:29;10.50;99.90
16867;DHT22;8550;52.596;13.320;2022-11-25T11:10:31;11.10;99.90
16867;DHT22;8550;52.596;13.320;2022-11-25T11:15:44;11.30;99.90
16867;DHT22;8550;52.596;13.320;2022-11-25T11:20:50;11.80;99.90
16867;DHT22;8550;52.596;13.320;2022-11-25T11:25:58;11.80;99.90
16867;DHT22;8550;52.596;13.320;2022-11-25T11:31:02;12.30;99.90
16867;DHT22;8550;52.596;13.320;2022-11-25T11:36:20;12.80;99.90
16867;DHT22;8550;52.596;13.320;2022-11-25T11:41:34;12.90;99.90
16867;DHT22;8550;52.596;13.320;2022-11-25T11:46:46;13.20;99.90
16867;DHT22;8550;52.596;13.320;2022-11-25T11:51:56;13.80;99.90
16867;DHT22;8550;52.596;13.320;2022-11-25T11:57:03;13.50;99.90
16867;DHT22;8550;52.596;13.320;2022-11-25T12:02:27;12.70;99.90
16867;DHT22;8550;52.596;13.320;2022-11-25T12:07:36;11.10;99.90
16867;DHT22;8550;52.596;13.320;2022-11-25T12:12:44;10.20;99.90
16867;DHT22;8550;52.596;13.320;2022-11-25T12:17:53;9.60;99.90
16867;DHT22;8550;52.596;13.320;2022-11-25T12:23:04;9.40;99.90
16867;DHT22;8550;52.596;13.320;2022-11-25T12:28:10;9.40;99.90
16867;DHT22;8550;52.596;13.320;2022-11-25T12:33:18;9.20;99.90
16867;DHT22;8550;52.596;13.320;2022-11-25T12:38:29;9.10;99.90
16867;DHT22;8550;52.596;13.320;2022-11-25T12:43:40;8.90;99.90
16867;DHT22;8550;52.596;13.320;2022-11-25T12:48:43;8.80;99.90
16867;DHT22;8550;52.596;13.320;2022-11-25T12:53:53;8.80;99.90
16867;DHT22;8550;52.596;13.320;2022-11-25T12:59:12;8.80;99.90
16867;DHT22;8550;52.596;13.320;2022-11-25T13:04:54;8.60;99.90
16867;DHT22;8550;52.596;13.320;2022-11-25T13:10:26;8.50;99.90
16867;DHT22;8550;52.596;13.320;2022-11-25T13:15:40;8.40;99.90
16867;DHT22;8550;52.596;13.320;2022-11-25T13:20:46;8.40;99.90
16867;DHT22;8550;52.596;13.320;2022-11-25T13:25:51;8.40;99.90
16867;DHT22;8550;52.596;13.320;2022-11-25T13:30:53;8.40;99.90
16867;DHT22;8550;52.596;13.320;2022-11-25T13:35:56;8.30;99.90
16867;DHT22;8550;52.596;13.320;2022-11-25T13:41:02;8.10;99.90
16867;DHT22;8550;52.596;13.320;2022-11-25T13:46:04;8.10;99.90
16867;DHT22;8550;52.596;13.320;2022-11-25T13:51:16;8.00;99.90
16867;DHT22;8550;52.596;13.320;2022-11-25T13:56:27;7.90;99.90
16867;DHT22;8550;52.596;13.320;2022-11-25T14:01:30;7.80;99.90
16867;DHT22;8550;52.596;13.320;2022-11-25T14:07:00;7.80;99.90
16867;DHT22;8550;52.596;13.320;2022-11-25T14:12:21;7.60;99.90
16867;DHT22;8550;52.596;13.320;2022-11-25T14:17:58;7.60;99.90
16867;DHT22;8550;52.596;13.320;2022-11-25T14:23:32;7.70;99.90
16867;DHT22;8550;52.596;13.320;2022-11-25T14:28:44;7.50;99.90
16867;DHT22;8550;52.596;13.320;2022-11-25T14:33:53;7.40;99.90
16867;DHT22;8550;52.596;13.320;2022-11-25T14:38:59;7.30;99.90
16867;DHT22;8550;52.596;13.320;2022-11-25T14:44:09;7.30;99.90
16867;DHT22;8550;52.596;13.320;2022-11-25T14:49:13;7.40;99.90
16867;DHT22;8550;52.596;13.320;2022-11-25T14:54:15;7.30;99.90
16867;DHT22;8550;52.596;13.320;2022-11-25T14:59:20;7.10;99.90
16867;DHT22;8550;52.596;13.320;2022-11-25T15:04:23;7.20;99.90
16867;DHT22;8550;52.596;13.320;2022-11-25T15:09:27;7.20;99.90
16867;DHT22;8550;52.596;13.320;2022-11-25T15:14:33;7.20;99.90
16867;DHT22;8550;52.596;13.320;2022-11-25T15:19:36;7.20;99.90
16867;DHT22;8550;52.596;13.320;2022-11-25T15:24:41;7.20;99.90
16867;DHT22;8550;52.596;13.320;2022-11-25T15:29:47;7.20;99.90
16867;DHT22;8550;52.596;13.320;2022-11-25T15:34:50;7.30;99.90
16867;DHT22;8550;52.596;13.320;2022-11-25T15:45:34;7.20;99.90
16867;DHT22;8550;52.596;13.320;2022-11-25T15:50:39;7.10;99.90
16867;DHT22;8550;52.596;13.320;2022-11-25T15:55:42;7.10;99.90
16867;DHT22;8550;52.596;13.320;2022-11-25T16:06:20;7.10;99.90
16867;DHT22;8550;52.596;13.320;2022-11-25T16:11:23;7.20;99.90
16867;DHT22;8550;52.596;13.320;2022-11-25T16:16:29;7.20;99.90
16867;DHT22;8550;52.596;13.320;2022-11-25T16:21:44;7.30;99.90
16867;DHT22;8550;52.596;13.320;2022-11-25T16:26:51;7.20;99.90
16867;DHT22;8550;52.596;13.320;2022-11-25T16:31:54;7.20;99.90
16867;DHT22;8550;52.596;13.320;2022-11-25T16:36:57;7.30;99.90
16867;DHT22;8550;52.596;13.320;2022-11-25T16:42:00;7.30;99.90
16867;DHT22;8550;52.596;13.320;2022-11-25T16:47:04;7.30;99.90
16867;DHT22;8550;52.596;13.320;2022-11-25T16:52:07;7.30;99.90
16867;DHT22;8550;52.596;13.320;2022-11-25T16:57:15;7.30;99.90
16867;DHT22;8550;52.596;13.320;2022-11-25T17:02:20;7.30;99.90
16867;DHT22;8550;52.596;13.320;2022-11-25T17:07:24;7.30;99.90
16867;DHT22;8550;52.596;13.320;2022-11-25T17:12:29;7.30;99.90
16867;DHT22;8550;52.596;13.320;2022-11-25T17:17:32;7.30;99.90
16867;DHT22;8550;52.596;13.320;2022-11-25T17:22:36;7.30;99.90
16867;DHT22;8550;52.596;13.320;2022-11-25T17:27:38;7.30;99.90
16867;DHT22;8550;52.596;13.320;2022-11-25T17:32:40;7.30;99.90
16867;DHT22;8550;52.596;13.320;2022-11-25T17:37:44;7.40;99.90
16867;DHT22;8550;52.596;13.320;2022-11-25T17:42:46;7.30;99.90
16867;DHT22;8550;52.596;13.320;2022-11-25T17:47:49;7.40;99.90
16867;DHT22;8550;52.596;13.320;2022-11-25T17:52:53;7.40;99.90
16867;DHT22;8550;52.596;13.320;2022-11-25T17:57:55;7.40;99.90
16867;DHT22;8550;52.596;13.320;2022-11-25T18:02:57;7.40;99.90
16867;DHT22;8550;52.596;13.320;2022-11-25T18:08:00;7.40;99.90
16867;DHT22;8550;52.596;13.320;2022-11-25T18:13:02;7.40;99.90
16867;DHT22;8550;52.596;13.320;2022-11-25T18:18:14;7.40;99.90
16867;DHT22;8550;52.596;13.320;2022-11-25T18:23:21;7.40;99.90
16867;DHT22;8550;52.596;13.320;2022-11-25T18:28:24;7.40;99.90
16867;DHT22;8550;52.596;13.320;2022-11-25T18:33:27;7.30;99.90
16867;DHT22;8550;52.596;13.320;2022-11-25T18:38:31;7.30;99.90
16867;DHT22;8550;52.596;13.320;2022-11-25T18:43:33;7.40;99.90
16867;DHT22;8550;52.596;13.320;2022-11-25T18:48:37;7.40;99.90
16867;DHT22;8550;52.596;13.320;2022-11-25T18:53:43;7.40;99.90
16867;DHT22;8550;52.596;13.320;2022-11-25T18:58:47;7.40;99.90
16867;DHT22;8550;52.596;13.320;2022-11-25T19:03:50;7.40;99.90
16867;DHT22;8550;52.596;13.320;2022-11-25T19:08:57;7.40;99.90
16867;DHT22;8550;52.596;13.320;2022-11-25T19:14:02;7.40;99.90
16867;DHT22;8550;52.596;13.320;2022-11-25T19:19:05;7.40;99.90
16867;DHT22;8550;52.596;13.320;2022-11-25T19:24:12;7.50;99.90
16867;DHT22;8550;52.596;13.320;2022-11-25T19:29:18;7.50;99.90
16867;DHT22;8550;52.596;13.320;2022-11-25T19:34:24;7.50;99.90
16867;DHT22;8550;52.596;13.320;2022-11-25T19:39:32;7.50;99.90
16867;DHT22;8550;52.596;13.320;2022-11-25T19:44:35;7.50;99.90
16867;DHT22;8550;52.596;13.320;2022-11-25T19:49:37;7.60;99.90
16867;DHT22;8550;52.596;13.320;2022-11-25T19:54:41;7.50;99.90
16867;DHT22;8550;52.596;13.320;2022-11-25T19:59:46;7.60;99.90
16867;DHT22;8550;52.596;13.320;2022-11-25T20:04:50;7.50;99.90
16867;DHT22;8550;52.596;13.320;2022-11-25T20:09:55;7.60;99.90
16867;DHT22;8550;52.596;13.320;2022-11-25T20:15:01;7.60;99.90
16867;DHT22;8550;52.596;13.320;2022-11-25T20:20:06;7.60;99.90
16867;DHT22;8550;52.596;13.320;2022-11-25T20:25:12;7.60;99.90
16867;DHT22;8550;52.596;13.320;2022-11-25T20:30:17;7.60;99.90
16867;DHT22;8550;52.596;13.320;2022-11-25T20:35:19;7.50;99.90
16867;DHT22;8550;52.596;13.320;2022-11-25T20:40:24;7.50;99.90
16867;DHT22;8550;52.596;13.320;2022-11-25T20:45:29;7.50;99.90
16867;DHT22;8550;52.596;13.320;2022-11-25T20:50:31;7.50;99.90
16867;DHT22;8550;52.596;13.320;2022-11-25T20:55:34;7.60;99.90
16867;DHT22;8550;52.596;13.320;2022-11-25T21:00:36;7.70;99.90
16867;DHT22;8550;52.596;13.320;2022-11-25T21:05:38;7.70;99.90
16867;DHT22;8550;52.596;13.320;2022-11-25T21:10:42;7.80;99.90
16867;DHT22;8550;52.596;13.320;2022-11-25T21:15:44;7.70;99.90
16867;DHT22;8550;52.596;13.320;2022-11-25T21:20:47;7.80;99.90
16867;DHT22;8550;52.596;13.320;2022-11-25T21:25:52;7.70;99.90
16867;DHT22;8550;52.596;13.320;2022-11-25T21:30:54;7.70;99.90
16867;DHT22;8550;52.596;13.320;2022-11-25T21:35:57;7.80;99.90
16867;DHT22;8550;52.596;13.320;2022-11-25T21:41:01;7.80;99.90
16867;DHT22;8550;52.596;13.320;2022-11-25T21:46:04;7.80;99.90
16867;DHT22;8550;52.596;13.320;2022-11-25T21:51:09;7.70;99.90
16867;DHT22;8550;52.596;13.320;2022-11-25T21:56:17;7.70;99.90
16867;DHT22;8550;52.596;13.320;2022-11-25T22:01:21;7.70;99.90
16867;DHT22;8550;52.596;13.320;2022-11-25T22:06:25;7.80;99.90
16867;DHT22;8550;52.596;13.320;2022-11-25T22:11:30;7.80;99.90
16867;DHT22;8550;52.596;13.320;2022-11-25T22:16:34;7.70;99.90
16867;DHT22;8550;52.596;13.320;2022-11-25T22:21:36;7.70;99.90
16867;DHT22;8550;52.596;13.320;2022-11-25T22:26:40;7.70;99.90
16867;DHT22;8550;52.596;13.320;2022-11-25T22:31:42;7.70;99.90
16867;DHT22;8550;52.596;13.320;2022-11-25T22:36:45;7.60;99.90
16867;DHT22;8550;52.596;13.320;2022-11-25T22:41:50;7.60;99.90
16867;DHT22;8550;52.596;13.320;2022-11-25T22:46:52;7.60;99.90
16867;DHT22;8550;52.596;13.320;2022-11-25T22:51:55;7.70;99.90
16867;DHT22;8550;52.596;13.320;2022-11-25T22:56:59;7.70;99.90
16867;DHT22;8550;52.596;13.320;2022-11-25T23:02:01;7.80;99.90
16867;DHT22;8550;52.596;13.320;2022-11-25T23:07:09;7.70;99.90
16867;DHT22;8550;52.596;13.320;2022-11-25T23:12:14;7.80;99.90
16867;DHT22;8550;52.596;13.320;2022-11-25T23:17:18;7.80;99.90
16867;DHT22;8550;52.596;13.320;2022-11-25T23:22:21;7.70;99.90
16867;DHT22;8550;52.596;13.320;2022-11-25T23:27:25;7.80;99.90
16867;DHT22;8550;52.596;13.320;2022-11-25T23:32:27;7.70;99.90
16867;DHT22;8550;52.596;13.320;2022-11-25T23:37:28;7.70;99.90
16867;DHT22;8550;52.596;13.320;2022-11-25T23:42:32;7.70;99.90
16867;DHT22;8550;52.596;13.320;2022-11-25T23:47:34;7.80;99.90
16867;DHT22;8550;52.596;13.320;2022-11-25T23:52:36;7.80;99.90
16867;DHT22;8550;52.596;13.320;2022-11-25T23:57:39;7.90;99.90
